Main page
METAR-TAF:

METAR-TAF

Airports :

Fort Morgan Municipal Airport

Fort Morgan, Colorado, United States

latitude: 40-20-02N, longitude: 103-48-15W, elevation: 4569 ft

Current weather observation

The report was made 25 minutes ago, at 13:35 UTC
Wind 8 mph from the East
Temperature 21°F
Humidity 73%
Pressure 30.07 in. Hg
Visibility: 10 miles
Clear sky

METAR: KFMM 221335Z AUTO 08007KT 10SM CLR M06/M10 A3007 RMK AO2 T10651096

Time: 07:00 (14:00 UTC)


TAF: missing

Weather observations and forecasts of more than 4000 airports (METAR and TAF reports).

The available stations are represented by yellow and red dots on the map.

Hover mouse over dot to see the name of the station.

Then click to see weather observations and forecasts.

To change the map : click on the green buttons with a black cross to zoom in, on the green button with a dash to zoom out, or on the green arrows for adjacent maps.


METAR-TAF: